createdAt,value
2017-08-11T00:01:15.394Z,4.60
2017-08-11T00:03:44.449Z,4.40
2017-08-11T00:06:12.774Z,5.73
2017-08-11T00:08:41.071Z,4.07
2017-08-11T00:11:09.402Z,3.90
2017-08-11T00:13:37.700Z,4.20
2017-08-11T00:16:05.994Z,4.27
2017-08-11T00:18:34.315Z,4.30
2017-08-11T00:21:02.642Z,5.03
2017-08-11T00:23:31.748Z,3.50
2017-08-11T00:26:00.048Z,4.07
2017-08-11T00:28:28.386Z,3.80
2017-08-11T00:30:57.531Z,4.20
2017-08-11T00:33:25.832Z,3.83
2017-08-11T00:35:54.126Z,4.03
2017-08-11T00:38:22.448Z,3.87
2017-08-11T00:40:50.746Z,3.50
2017-08-11T00:43:19.068Z,4.63
2017-08-11T00:45:47.368Z,4.03
2017-08-11T00:48:15.709Z,5.23
2017-08-11T00:50:44.009Z,3.47
2017-08-11T00:53:12.337Z,4.10
2017-08-11T00:55:41.464Z,4.70
2017-08-11T00:58:09.766Z,3.30
2017-08-11T01:00:38.859Z,3.97
2017-08-11T01:03:07.148Z,2.77
2017-08-11T01:05:35.458Z,3.27
2017-08-11T01:08:03.788Z,3.77
2017-08-11T01:10:32.077Z,4.50
2017-08-11T01:13:00.421Z,4.00
2017-08-11T01:15:29.476Z,3.90
2017-08-11T01:17:57.797Z,4.00
2017-08-11T01:20:26.113Z,5.10
2017-08-11T01:22:54.427Z,4.00
2017-08-11T01:25:23.501Z,3.57
2017-08-11T01:27:51.852Z,3.37
2017-08-11T01:30:20.146Z,3.30
2017-08-11T01:32:48.442Z,3.70
2017-08-11T01:35:16.760Z,4.70
2017-08-11T01:37:45.054Z,5.10
2017-08-11T01:40:13.377Z,4.83
2017-08-11T01:42:41.663Z,5.13
2017-08-11T01:45:09.992Z,5.27
2017-08-11T01:47:39.061Z,6.27
2017-08-11T01:50:07.385Z,4.90
2017-08-11T01:52:35.726Z,4.30
2017-08-11T01:55:04.795Z,3.77
2017-08-11T01:57:33.096Z,3.63
2017-08-11T02:00:01.432Z,3.60
2017-08-11T02:02:29.732Z,3.97
2017-08-11T02:04:58.019Z,4.47
2017-08-11T02:07:26.351Z,4.60
2017-08-11T02:09:54.644Z,4.83
2017-08-11T02:12:22.944Z,4.93
2017-08-11T02:14:51.271Z,4.53
2017-08-11T02:17:19.564Z,6.33
2017-08-11T02:19:47.906Z,4.03
2017-08-11T02:22:16.222Z,4.20
2017-08-11T02:24:44.525Z,4.93
2017-08-11T02:27:12.849Z,4.03
2017-08-11T02:29:41.149Z,4.70
2017-08-11T02:32:09.455Z,3.80
2017-08-11T02:34:37.780Z,3.63
2017-08-11T02:37:06.080Z,3.80
2017-08-11T02:39:34.422Z,3.80
2017-08-11T02:42:03.484Z,4.47
2017-08-11T02:44:31.779Z,3.37
2017-08-11T02:47:00.868Z,4.13
2017-08-11T02:49:29.155Z,4.70
2017-08-11T02:51:57.487Z,4.43
2017-08-11T02:54:25.788Z,5.00
2017-08-11T02:56:54.076Z,5.27
2017-08-11T02:59:22.413Z,4.73
2017-08-11T03:01:50.748Z,4.83
2017-08-11T03:04:19.049Z,4.03
2017-08-11T03:06:47.336Z,4.33
2017-08-11T03:09:15.676Z,4.27
2017-08-11T03:11:43.973Z,4.93
2017-08-11T03:14:12.266Z,5.07
2017-08-11T03:16:41.352Z,4.10
2017-08-11T03:19:09.644Z,4.60
2017-08-11T03:21:37.994Z,6.63
2017-08-11T03:24:07.063Z,6.00
2017-08-11T03:26:35.355Z,5.40
2017-08-11T03:29:03.694Z,6.20
2017-08-11T03:31:31.991Z,6.20
2017-08-11T03:34:00.291Z,7.20
2017-08-11T03:36:28.612Z,6.80
2017-08-11T03:38:57.682Z,6.90
2017-08-11T03:41:26.034Z,7.40
2017-08-11T03:43:54.343Z,11.73
2017-08-11T03:46:23.405Z,6.13
2017-08-11T03:48:51.752Z,6.37
2017-08-11T03:51:20.050Z,7.87
2017-08-11T03:53:48.348Z,8.43
2017-08-11T03:56:16.705Z,8.20
2017-08-11T03:58:45.032Z,7.77
2017-08-11T04:01:13.332Z,10.80
2017-08-11T04:03:41.624Z,9.93
2017-08-11T04:06:09.965Z,12.03
2017-08-11T04:08:38.254Z,8.47
2017-08-11T04:11:06.552Z,8.10
2017-08-11T04:13:34.870Z,8.37
2017-08-11T04:16:03.158Z,9.57
2017-08-11T04:18:31.493Z,8.40
2017-08-11T04:20:59.801Z,13.07
2017-08-11T04:23:28.109Z,13.97
2017-08-11T04:25:56.442Z,9.03
2017-08-11T04:28:24.731Z,8.93
2017-08-11T04:30:53.032Z,8.87
2017-08-11T04:33:21.377Z,9.80
2017-08-11T04:35:50.498Z,8.60
2017-08-11T04:38:18.784Z,8.20
2017-08-11T04:40:47.141Z,7.83
2017-08-11T04:43:16.206Z,10.03
2017-08-11T04:45:44.570Z,8.43
2017-08-11T04:48:13.673Z,7.00
2017-08-11T04:50:41.968Z,6.77
2017-08-11T04:53:10.258Z,6.63
2017-08-11T04:55:38.584Z,7.80
2017-08-11T04:58:06.915Z,7.47
2017-08-11T05:00:35.979Z,7.17
2017-08-11T05:03:04.271Z,7.30
2017-08-11T05:05:32.591Z,7.47
2017-08-11T05:08:00.908Z,8.03
2017-08-11T05:10:29.205Z,8.77
2017-08-11T05:12:57.543Z,10.60
2017-08-11T05:15:26.617Z,11.10
2017-08-11T05:17:54.930Z,11.83
2017-08-11T05:20:23.274Z,11.33
2017-08-11T05:22:52.341Z,16.37
2017-08-11T05:25:20.686Z,12.73
2017-08-11T05:27:48.981Z,11.00
2017-08-11T05:30:17.292Z,14.00
2017-08-11T05:32:45.612Z,14.30
2017-08-11T05:35:13.915Z,14.53
2017-08-11T05:37:42.245Z,11.27
2017-08-11T05:40:10.572Z,17.80
2017-08-11T05:42:38.873Z,12.57
2017-08-11T05:45:07.197Z,12.90
2017-08-11T05:47:35.501Z,11.90
2017-08-11T05:50:03.837Z,13.77
2017-08-11T05:52:32.154Z,16.10
2017-08-11T05:55:00.489Z,13.50
2017-08-11T05:57:28.797Z,14.00
2017-08-11T05:59:57.127Z,10.10
2017-08-11T06:02:25.477Z,15.23
2017-08-11T06:04:54.538Z,18.70
2017-08-11T06:07:23.638Z,16.53
2017-08-11T06:09:52.010Z,15.03
2017-08-11T06:12:21.083Z,18.17
2017-08-11T06:14:49.417Z,14.90
2017-08-11T06:17:17.785Z,22.40
2017-08-11T06:19:46.119Z,18.27
2017-08-11T06:22:14.459Z,21.17
2017-08-11T06:24:42.761Z,18.70
2017-08-11T06:27:11.837Z,18.23
2017-08-11T06:29:40.225Z,20.83
2017-08-11T06:32:08.533Z,25.00
2017-08-11T06:34:36.897Z,22.43
2017-08-11T06:37:05.228Z,22.40
2017-08-11T06:39:33.538Z,34.30
2017-08-11T06:42:02.094Z,27.13
2017-08-11T06:44:30.431Z,30.43
2017-08-11T06:46:58.880Z,25.50
2017-08-11T06:49:27.219Z,25.10
2017-08-11T06:51:55.543Z,27.13
2017-08-11T06:54:23.881Z,21.07
2017-08-11T06:56:52.190Z,26.70
2017-08-11T06:59:20.511Z,29.57
2017-08-11T07:01:49.631Z,26.57
2017-08-11T07:04:17.984Z,19.53
2017-08-11T07:06:46.294Z,21.53
2017-08-11T07:09:14.741Z,27.50
2017-08-11T07:11:43.061Z,21.77
2017-08-11T07:14:11.606Z,26.33
2017-08-11T07:16:39.954Z,19.27
2017-08-11T07:19:08.262Z,21.70
2017-08-11T07:21:36.568Z,27.43
2017-08-11T07:24:04.910Z,19.40
2017-08-11T07:26:34.386Z,19.47
2017-08-11T07:29:02.703Z,20.00
2017-08-11T07:31:31.037Z,17.10
2017-08-11T07:34:00.147Z,21.50
2017-08-11T07:36:28.499Z,23.30
2017-08-11T07:38:56.801Z,18.40
2017-08-11T07:41:25.329Z,13.27
2017-08-11T07:43:53.670Z,16.50
2017-08-11T07:46:21.987Z,14.23
2017-08-11T07:48:51.126Z,12.20
2017-08-11T07:51:19.427Z,11.13
2017-08-11T07:53:48.494Z,8.60
2017-08-11T07:56:16.842Z,10.83
2017-08-11T07:58:45.916Z,10.77
2017-08-11T08:01:14.228Z,15.07
2017-08-11T08:03:42.555Z,14.23
2017-08-11T08:06:10.870Z,10.93
2017-08-11T08:08:39.537Z,13.10
2017-08-11T08:11:07.842Z,8.43
2017-08-11T08:13:36.153Z,12.70
2017-08-11T08:16:04.540Z,14.27
2017-08-11T08:18:32.840Z,15.07
2017-08-11T08:21:01.335Z,11.37
2017-08-11T08:23:29.660Z,13.73
2017-08-11T08:25:57.966Z,10.73
2017-08-11T08:28:26.296Z,8.33
2017-08-11T08:30:54.606Z,10.03
2017-08-11T08:33:22.941Z,17.53
2017-08-11T08:35:51.245Z,10.33
2017-08-11T08:38:20.342Z,11.70
2017-08-11T08:40:48.671Z,16.17
2017-08-11T08:43:17.007Z,12.43
2017-08-11T08:45:46.069Z,9.13
2017-08-11T08:48:14.401Z,13.50
2017-08-11T08:50:42.732Z,11.47
2017-08-11T08:53:11.803Z,10.20
2017-08-11T08:55:40.229Z,10.53
2017-08-11T08:58:08.529Z,7.33
2017-08-11T09:00:36.831Z,8.57
2017-08-11T09:03:05.196Z,12.03
2017-08-11T09:05:33.493Z,7.53
2017-08-11T09:08:02.550Z,7.70
2017-08-11T09:10:30.879Z,6.33
2017-08-11T09:12:59.182Z,6.17
2017-08-11T09:15:27.511Z,6.30
2017-08-11T09:17:56.579Z,7.57
2017-08-11T09:20:24.929Z,7.20
2017-08-11T09:22:54.019Z,6.13
2017-08-11T09:25:40.042Z,5.10
2017-08-11T09:28:26.021Z,7.57
2017-08-11T09:31:12.241Z,3.70
2017-08-11T09:33:58.342Z,4.13
2017-08-11T09:36:38.592Z,4.27
2017-08-11T09:39:06.894Z,2.80
2017-08-11T09:41:35.197Z,1.80
2017-08-11T09:44:03.526Z,1.60
2017-08-11T09:46:32.591Z,1.53
2017-08-11T09:49:00.943Z,1.10
2017-08-11T09:51:29.241Z,1.10
2017-08-11T09:53:57.541Z,2.20
2017-08-11T09:56:25.879Z,1.60
2017-08-11T09:58:54.982Z,1.30
2017-08-11T10:01:23.330Z,1.30
2017-08-11T10:03:51.631Z,1.70
2017-08-11T10:06:21.067Z,1.30
2017-08-11T10:08:49.418Z,1.00
2017-08-11T10:11:17.713Z,1.03
2017-08-11T10:13:46.036Z,0.70
2017-08-11T10:16:14.386Z,1.20
2017-08-11T10:18:42.724Z,1.40
2017-08-11T10:21:11.106Z,1.07
2017-08-11T10:23:39.445Z,1.50
2017-08-11T10:26:07.768Z,1.57
2017-08-11T10:28:36.062Z,0.87
2017-08-11T10:31:04.394Z,1.40
2017-08-11T10:33:32.764Z,1.70
2017-08-11T10:36:01.124Z,0.90
2017-08-11T10:38:29.429Z,0.60
2017-08-11T10:40:57.781Z,0.73
2017-08-11T10:43:26.146Z,0.87
2017-08-11T10:45:54.454Z,0.70
2017-08-11T10:48:22.761Z,0.70
2017-08-11T10:50:51.148Z,1.23
2017-08-11T10:53:19.525Z,0.80
2017-08-11T10:55:47.869Z,1.40
2017-08-11T10:58:16.208Z,0.60
2017-08-11T11:00:44.525Z,1.10
2017-08-11T11:03:12.830Z,0.90
2017-08-11T11:05:41.194Z,2.80
2017-08-11T11:08:09.498Z,0.90
2017-08-11T11:10:38.321Z,0.80
2017-08-11T11:13:06.659Z,0.80
2017-08-11T11:15:35.224Z,1.40
2017-08-11T11:18:03.525Z,1.83
2017-08-11T11:20:31.849Z,0.83
2017-08-11T11:23:00.409Z,1.13
2017-08-11T11:25:29.490Z,1.90
2017-08-11T11:27:57.794Z,1.30
2017-08-11T11:30:26.129Z,0.57
2017-08-11T11:32:54.439Z,0.50
2017-08-11T11:35:23.540Z,0.60
2017-08-11T11:37:51.845Z,0.50
2017-08-11T11:40:20.145Z,0.70
2017-08-11T11:42:48.484Z,0.80
2017-08-11T11:45:17.558Z,0.60
2017-08-11T11:47:45.894Z,2.20
2017-08-11T11:50:14.322Z,0.70
2017-08-11T11:52:43.405Z,0.70
2017-08-11T11:55:11.702Z,0.70
2017-08-11T11:57:40.040Z,0.50
2017-08-11T12:00:09.110Z,0.90
2017-08-11T12:02:37.430Z,4.37
2017-08-11T12:05:05.759Z,0.40
2017-08-11T12:07:34.062Z,0.50
2017-08-11T12:10:02.402Z,0.60
2017-08-11T12:12:30.694Z,0.60
2017-08-11T12:14:59.012Z,0.63
2017-08-11T12:17:27.421Z,1.37
2017-08-11T12:19:55.894Z,1.57
2017-08-11T12:22:24.189Z,0.70
2017-08-11T12:24:52.520Z,0.80
2017-08-11T12:27:20.821Z,0.63
2017-08-11T12:29:49.409Z,0.90
2017-08-11T12:32:17.711Z,0.70
2017-08-11T12:34:46.049Z,0.53
2017-08-11T12:37:15.154Z,0.67
2017-08-11T12:39:43.517Z,0.70
2017-08-11T12:42:11.809Z,0.50
2017-08-11T12:44:40.168Z,0.60
2017-08-11T12:47:08.490Z,1.30
2017-08-11T12:49:36.798Z,1.50
2017-08-11T12:52:05.230Z,2.53
2017-08-11T12:54:33.533Z,1.37
2017-08-11T12:57:01.870Z,1.40
2017-08-11T12:59:30.171Z,1.70
2017-08-11T13:01:58.697Z,1.93
2017-08-11T13:04:27.042Z,1.33
2017-08-11T13:06:55.349Z,1.53
2017-08-11T13:09:23.694Z,1.30
2017-08-11T13:11:52.021Z,1.80
2017-08-11T13:14:21.133Z,2.30
2017-08-11T13:16:49.435Z,0.93
2017-08-11T13:19:18.539Z,1.70
2017-08-11T13:21:46.846Z,1.00
2017-08-11T13:24:15.151Z,1.90
2017-08-11T13:26:43.492Z,1.03
2017-08-11T13:29:11.797Z,1.10
2017-08-11T13:31:41.015Z,1.00
2017-08-11T13:34:09.366Z,1.20
2017-08-11T13:36:37.714Z,1.43
2017-08-11T13:39:06.021Z,1.40
2017-08-11T13:41:34.308Z,0.90
2017-08-11T13:44:03.424Z,2.47
2017-08-11T13:46:31.782Z,1.10
2017-08-11T13:49:00.080Z,1.53
2017-08-11T13:51:28.454Z,1.20
2017-08-11T13:53:57.523Z,1.30
2017-08-11T13:56:25.879Z,0.93
2017-08-11T13:58:54.954Z,0.93
2017-08-11T14:01:23.249Z,1.47
2017-08-11T14:03:51.590Z,1.87
2017-08-11T14:06:19.926Z,2.83
2017-08-11T14:08:48.238Z,2.80
2017-08-11T14:11:16.538Z,2.20
2017-08-11T14:13:45.635Z,1.20
2017-08-11T14:16:13.968Z,1.77
2017-08-11T14:18:42.329Z,2.10
2017-08-11T14:21:10.663Z,1.20
2017-08-11T14:23:44.473Z,2.93
2017-08-11T14:26:12.774Z,0.83
2017-08-11T14:28:41.068Z,1.10
2017-08-11T14:33:26.495Z,1.87
2017-08-11T14:35:54.809Z,1.80
2017-08-11T14:38:23.137Z,1.37
2017-08-11T14:40:51.420Z,1.33
2017-08-11T14:43:19.735Z,2.43
2017-08-11T14:45:48.052Z,1.10
2017-08-11T14:48:16.344Z,1.20
2017-08-11T14:50:44.660Z,1.20
2017-08-11T14:53:12.989Z,1.13
2017-08-11T14:55:41.354Z,1.53
2017-08-11T14:58:10.213Z,1.20
2017-08-11T15:00:38.505Z,3.13
2017-08-11T15:03:06.845Z,1.73
2017-08-11T15:05:35.904Z,1.03
2017-08-11T15:08:04.192Z,0.90
2017-08-11T15:10:32.520Z,3.53
2017-08-11T15:13:00.826Z,1.80
2017-08-11T15:15:29.159Z,1.60
2017-08-11T15:17:57.447Z,1.07
2017-08-11T15:20:25.771Z,0.83
2017-08-11T15:22:54.068Z,5.07
2017-08-11T15:25:22.401Z,1.70
2017-08-11T15:27:50.719Z,1.77
2017-08-11T15:30:19.061Z,2.00
2017-08-11T15:32:47.423Z,2.20
2017-08-11T15:35:15.729Z,2.03
2017-08-11T15:37:44.035Z,2.30
2017-08-11T15:40:13.132Z,3.50
2017-08-11T15:42:41.435Z,2.93
2017-08-11T15:45:09.765Z,5.23
2017-08-11T15:47:38.104Z,2.93
2017-08-11T15:50:06.415Z,4.07
2017-08-11T15:52:35.486Z,3.83
2017-08-11T15:55:03.834Z,5.80
2017-08-11T15:57:32.140Z,4.13
2017-08-11T16:00:00.437Z,5.67
2017-08-11T16:02:28.758Z,8.23
2017-08-11T16:04:57.096Z,11.37
2017-08-11T16:07:25.398Z,6.13
2017-08-11T16:09:53.693Z,6.20
2017-08-11T16:12:22.027Z,5.67
2017-08-11T16:14:51.092Z,7.77
2017-08-11T16:17:19.460Z,5.67
2017-08-11T16:19:48.520Z,8.63
2017-08-11T16:22:16.809Z,8.17
2017-08-11T16:24:45.132Z,6.77
2017-08-11T16:27:13.434Z,5.80
2017-08-11T16:29:41.756Z,8.30
2017-08-11T16:32:10.077Z,9.30
2017-08-11T16:34:38.369Z,6.93
2017-08-11T16:37:06.706Z,7.20
2017-08-11T16:39:35.002Z,11.80
2017-08-11T16:42:03.312Z,11.33
2017-08-11T16:44:31.649Z,9.43
2017-08-11T16:47:00.718Z,9.53
2017-08-11T16:49:29.126Z,10.43
2017-08-11T16:51:57.446Z,9.60
2017-08-11T16:54:25.790Z,10.90
2017-08-11T16:56:54.910Z,12.97
2017-08-11T16:59:23.989Z,16.10
2017-08-11T17:01:52.298Z,13.03
2017-08-11T17:04:20.639Z,16.07
2017-08-11T17:06:49.701Z,9.77
2017-08-11T17:09:18.070Z,11.30
2017-08-11T17:11:46.408Z,10.40
2017-08-11T17:14:14.724Z,13.87
2017-08-11T17:16:43.072Z,12.20
2017-08-11T17:19:11.414Z,13.53
2017-08-11T17:21:39.721Z,14.40
2017-08-11T17:24:08.058Z,12.50
2017-08-11T17:26:36.388Z,11.40
2017-08-11T17:29:04.684Z,9.50
2017-08-11T17:31:32.977Z,9.03
2017-08-11T17:34:01.313Z,8.77
2017-08-11T17:36:30.374Z,11.20
2017-08-11T17:38:58.681Z,10.70
2017-08-11T17:41:27.008Z,10.63
2017-08-11T17:43:55.413Z,10.70
2017-08-11T17:46:23.745Z,11.10
2017-08-11T17:48:52.109Z,10.47
2017-08-11T17:51:20.420Z,10.97
2017-08-11T17:53:48.766Z,10.17
2017-08-11T17:56:17.853Z,9.87
2017-08-11T17:58:46.162Z,10.50
2017-08-11T18:01:14.927Z,11.37
2017-08-11T18:03:43.285Z,10.73
2017-08-11T18:06:11.600Z,14.03
2017-08-11T18:08:39.946Z,12.27
2017-08-11T18:11:08.248Z,18.50
2017-08-11T18:13:36.551Z,16.10
2017-08-11T18:16:04.913Z,14.23
2017-08-11T18:18:33.214Z,10.73
2017-08-11T18:21:01.524Z,9.57
2017-08-11T18:23:29.885Z,11.77
2017-08-11T18:25:58.206Z,14.33
2017-08-11T18:28:26.505Z,16.07
2017-08-11T18:30:54.834Z,12.10
2017-08-11T18:33:23.132Z,13.27
2017-08-11T18:35:51.459Z,8.67
2017-08-11T18:38:20.562Z,12.50
2017-08-11T18:40:48.880Z,10.17
2017-08-11T18:43:17.176Z,15.50
2017-08-11T18:45:45.584Z,9.30
2017-08-11T18:48:13.917Z,16.10
2017-08-11T18:50:42.269Z,11.50
2017-08-11T18:53:10.567Z,13.20
2017-08-11T18:55:38.865Z,8.47
2017-08-11T18:58:07.974Z,12.60
2017-08-11T19:00:37.091Z,11.70
2017-08-11T19:03:06.201Z,10.53
2017-08-11T19:05:34.521Z,13.10
2017-08-11T19:08:02.887Z,11.53
2017-08-11T19:10:31.220Z,9.80
2017-08-11T19:12:59.711Z,16.67
2017-08-11T19:15:28.646Z,14.50
2017-08-11T19:17:57.449Z,15.40
2017-08-11T19:20:25.817Z,11.63
2017-08-11T19:22:54.160Z,14.60
2017-08-11T19:25:22.466Z,11.73
2017-08-11T19:27:50.802Z,12.10
2017-08-11T19:30:19.868Z,20.63
2017-08-11T19:32:48.197Z,19.13
2017-08-11T19:35:16.526Z,12.37
2017-08-11T19:37:44.822Z,14.97
2017-08-11T19:40:13.155Z,15.70
2017-08-11T19:42:42.275Z,19.27
2017-08-11T19:45:10.665Z,20.07
2017-08-11T19:47:38.969Z,29.50
2017-08-11T19:50:07.309Z,41.23
2017-08-11T19:52:36.492Z,23.37
2017-08-11T19:55:04.804Z,21.17
2017-08-11T19:57:33.175Z,21.70
2017-08-11T20:00:01.477Z,25.57
2017-08-11T20:02:30.684Z,29.70
2017-08-11T20:04:59.013Z,31.50
2017-08-11T20:07:27.362Z,40.63
2017-08-11T20:09:55.695Z,33.77
2017-08-11T20:12:24.033Z,38.10
2017-08-11T20:14:53.123Z,33.03
2017-08-11T20:17:21.489Z,41.97
2017-08-11T20:19:49.834Z,42.37
2017-08-11T20:22:18.145Z,43.37
2017-08-11T20:24:46.568Z,51.00
2017-08-11T20:27:14.935Z,51.00
2017-08-11T20:29:44.543Z,55.80
2017-08-11T20:32:13.655Z,45.60
2017-08-11T20:34:42.797Z,43.70
2017-08-11T20:37:11.098Z,53.73
2017-08-11T20:39:40.214Z,45.90
2017-08-11T20:42:08.518Z,52.83
2017-08-11T20:44:36.823Z,51.40
2017-08-11T20:47:05.153Z,64.37
2017-08-11T20:49:33.460Z,72.43
2017-08-11T20:52:01.809Z,79.47
2017-08-11T20:54:30.116Z,61.03
2017-08-11T20:56:58.462Z,74.63
2017-08-11T20:59:26.839Z,58.20
2017-08-11T21:01:55.196Z,90.47
2017-08-11T21:04:23.510Z,85.33
2017-08-11T21:06:51.866Z,65.70
2017-08-11T21:09:20.193Z,115.77
2017-08-11T21:11:48.501Z,74.37
2017-08-11T21:14:16.855Z,86.73
2017-08-11T21:16:45.186Z,72.53
2017-08-11T21:19:13.538Z,78.03
2017-08-11T21:21:42.703Z,91.93
2017-08-11T21:24:11.059Z,92.90
2017-08-11T21:26:39.365Z,99.50
2017-08-11T21:29:07.702Z,99.90
2017-08-11T21:31:36.791Z,94.73
2017-08-11T21:34:05.147Z,85.90
2017-08-11T21:36:34.298Z,100.67
2017-08-11T21:39:02.624Z,101.00
2017-08-11T21:41:30.958Z,87.83
2017-08-11T21:43:59.355Z,98.47
2017-08-11T21:46:28.542Z,147.23
2017-08-11T21:48:56.922Z,91.50
2017-08-11T21:51:25.223Z,85.47
2017-08-11T21:53:54.358Z,123.20
2017-08-11T21:56:23.478Z,97.90
2017-08-11T21:58:52.586Z,94.53
2017-08-11T22:01:21.668Z,89.30
2017-08-11T22:03:49.972Z,91.63
2017-08-11T22:06:18.397Z,127.27
2017-08-11T22:08:46.730Z,114.07
2017-08-11T22:11:15.087Z,72.93
2017-08-11T22:13:43.393Z,93.47
2017-08-11T22:16:11.701Z,81.80
2017-08-11T22:18:40.037Z,81.13
2017-08-11T22:21:08.389Z,86.93
2017-08-11T22:23:36.696Z,87.30
2017-08-11T22:26:05.009Z,77.40
2017-08-11T22:28:33.358Z,71.33
2017-08-11T22:31:01.660Z,98.27
2017-08-11T22:33:29.969Z,90.03
2017-08-11T22:35:59.073Z,77.27
2017-08-11T22:38:27.414Z,88.53
2017-08-11T22:40:55.761Z,68.13
2017-08-11T22:43:24.110Z,68.40
2017-08-11T22:45:52.424Z,70.10
2017-08-11T22:48:20.773Z,61.00
2017-08-11T22:50:49.072Z,84.07
2017-08-11T22:53:17.600Z,74.63
2017-08-11T22:55:45.941Z,65.73
2017-08-11T22:58:15.009Z,72.70
2017-08-11T23:00:43.317Z,59.83
2017-08-11T23:03:11.663Z,62.77
2017-08-11T23:05:40.737Z,60.60
2017-08-11T23:08:09.081Z,64.10
2017-08-11T23:10:37.381Z,89.80
2017-08-11T23:13:05.684Z,72.10
2017-08-11T23:15:34.021Z,53.10
2017-08-11T23:18:02.329Z,53.93
2017-08-11T23:20:30.660Z,57.17
2017-08-11T23:22:58.963Z,75.83
2017-08-11T23:25:27.300Z,77.53
2017-08-11T23:27:55.610Z,61.60
2017-08-11T23:30:23.925Z,50.03
2017-08-11T23:32:52.284Z,63.67
2017-08-11T23:35:20.636Z,52.70
2017-08-11T23:37:48.969Z,55.03
2017-08-11T23:40:17.315Z,60.07
2017-08-11T23:42:46.415Z,57.30
2017-08-11T23:45:14.777Z,72.93
2017-08-11T23:47:44.029Z,54.40
2017-08-11T23:50:13.150Z,51.23
2017-08-11T23:52:41.486Z,73.77
2017-08-11T23:55:09.810Z,53.23
2017-08-11T23:57:38.202Z,42.27
